Terminal Aerodrome Forecast
Issued by NWS

Home | Current Version | Previous Version | Graphics & Text | Print | Product List | Glossary On
Versions: 1 2 3 4 5 6 7 8 9 10 11 12 13 14 15 16 17 18 19 20 21
000
FTUS43 KFGF 270520
TAFBJI
TAF
KBJI 270520Z 2706/2806 19004KT P6SM BKN080
     FM271400 16008KT P6SM VCSH BKN070
     FM271600 16008KT P6SM OVC060
     FM280200 16004KT P6SM BKN150=

USA.gov is the U.S. government's official web portal to all federal, state and local government web resources and services.